sensor_id;sensor_type;location;lat;lon;timestamp;P1;durP1;ratioP1;P2;durP2;ratioP2
68126;SDS011;54931;52.098;21.006;2023-07-31T00:00:44;4.20;;;3.40;;
68126;SDS011;54931;52.098;21.006;2023-07-31T00:03:26;4.50;;;3.00;;
68126;SDS011;54931;52.098;21.006;2023-07-31T00:05:53;3.70;;;2.90;;
68126;SDS011;54931;52.098;21.006;2023-07-31T00:08:20;6.00;;;3.60;;
68126;SDS011;54931;52.098;21.006;2023-07-31T00:10:51;5.80;;;3.40;;
68126;SDS011;54931;52.098;21.006;2023-07-31T00:13:19;4.50;;;2.90;;
68126;SDS011;54931;52.098;21.006;2023-07-31T00:15:47;4.70;;;3.10;;
68126;SDS011;54931;52.098;21.006;2023-07-31T00:18:14;3.80;;;2.90;;
68126;SDS011;54931;52.098;21.006;2023-07-31T00:20:42;4.20;;;2.90;;
68126;SDS011;54931;52.098;21.006;2023-07-31T00:23:09;4.10;;;3.10;;
68126;SDS011;54931;52.098;21.006;2023-07-31T00:25:37;4.70;;;2.90;;
68126;SDS011;54931;52.098;21.006;2023-07-31T00:28:04;4.60;;;3.20;;
68126;SDS011;54931;52.098;21.006;2023-07-31T00:30:32;4.10;;;3.10;;
68126;SDS011;54931;52.098;21.006;2023-07-31T00:32:59;4.10;;;3.00;;
68126;SDS011;54931;52.098;21.006;2023-07-31T00:35:26;4.50;;;3.20;;
68126;SDS011;54931;52.098;21.006;2023-07-31T00:37:53;4.90;;;3.20;;
68126;SDS011;54931;52.098;21.006;2023-07-31T00:40:21;5.50;;;3.10;;
68126;SDS011;54931;52.098;21.006;2023-07-31T00:42:49;5.20;;;3.00;;
68126;SDS011;54931;52.098;21.006;2023-07-31T00:45:16;3.90;;;2.90;;
68126;SDS011;54931;52.098;21.006;2023-07-31T00:47:43;3.60;;;2.80;;
68126;SDS011;54931;52.098;21.006;2023-07-31T00:50:11;5.10;;;2.60;;
68126;SDS011;54931;52.098;21.006;2023-07-31T00:52:39;3.70;;;2.90;;
68126;SDS011;54931;52.098;21.006;2023-07-31T00:55:07;5.10;;;3.20;;
68126;SDS011;54931;52.098;21.006;2023-07-31T00:57:36;5.90;;;2.80;;
68126;SDS011;54931;52.098;21.006;2023-07-31T01:00:06;5.80;;;3.20;;
68126;SDS011;54931;52.098;21.006;2023-07-31T01:02:38;4.10;;;2.90;;
68126;SDS011;54931;52.098;21.006;2023-07-31T01:05:05;4.10;;;3.20;;
68126;SDS011;54931;52.098;21.006;2023-07-31T01:07:57;4.60;;;3.30;;
68126;SDS011;54931;52.098;21.006;2023-07-31T01:10:50;6.10;;;3.20;;
68126;SDS011;54931;52.098;21.006;2023-07-31T01:13:23;3.60;;;2.90;;
68126;SDS011;54931;52.098;21.006;2023-07-31T01:15:50;5.10;;;3.60;;
68126;SDS011;54931;52.098;21.006;2023-07-31T01:18:18;5.40;;;3.60;;
68126;SDS011;54931;52.098;21.006;2023-07-31T01:20:54;6.20;;;3.50;;
68126;SDS011;54931;52.098;21.006;2023-07-31T01:26:34;5.50;;;3.10;;
68126;SDS011;54931;52.098;21.006;2023-07-31T01:29:07;5.10;;;3.10;;
68126;SDS011;54931;52.098;21.006;2023-07-31T01:31:41;4.00;;;3.10;;
68126;SDS011;54931;52.098;21.006;2023-07-31T01:34:11;10.40;;;3.50;;
68126;SDS011;54931;52.098;21.006;2023-07-31T01:36:40;4.50;;;3.50;;
68126;SDS011;54931;52.098;21.006;2023-07-31T01:39:08;7.60;;;3.30;;
68126;SDS011;54931;52.098;21.006;2023-07-31T01:41:35;5.60;;;3.20;;
68126;SDS011;54931;52.098;21.006;2023-07-31T01:44:02;5.60;;;3.40;;
68126;SDS011;54931;52.098;21.006;2023-07-31T01:46:30;5.80;;;3.50;;
68126;SDS011;54931;52.098;21.006;2023-07-31T01:48:57;5.50;;;3.50;;
68126;SDS011;54931;52.098;21.006;2023-07-31T01:51:25;6.10;;;3.50;;
68126;SDS011;54931;52.098;21.006;2023-07-31T01:53:52;4.70;;;3.60;;
68126;SDS011;54931;52.098;21.006;2023-07-31T01:56:19;7.00;;;3.60;;
68126;SDS011;54931;52.098;21.006;2023-07-31T01:58:47;4.30;;;3.20;;
68126;SDS011;54931;52.098;21.006;2023-07-31T02:01:14;5.40;;;3.60;;
68126;SDS011;54931;52.098;21.006;2023-07-31T02:03:42;4.90;;;3.20;;
68126;SDS011;54931;52.098;21.006;2023-07-31T02:06:09;4.70;;;3.40;;
68126;SDS011;54931;52.098;21.006;2023-07-31T02:08:37;6.00;;;3.40;;
68126;SDS011;54931;52.098;21.006;2023-07-31T02:11:04;4.50;;;3.50;;
68126;SDS011;54931;52.098;21.006;2023-07-31T02:13:33;5.00;;;3.40;;
68126;SDS011;54931;52.098;21.006;2023-07-31T02:16:00;8.90;;;3.70;;
68126;SDS011;54931;52.098;21.006;2023-07-31T02:18:28;5.40;;;3.70;;
68126;SDS011;54931;52.098;21.006;2023-07-31T02:20:55;6.90;;;3.80;;
68126;SDS011;54931;52.098;21.006;2023-07-31T02:23:23;5.10;;;3.90;;
68126;SDS011;54931;52.098;21.006;2023-07-31T02:25:50;5.40;;;3.60;;
68126;SDS011;54931;52.098;21.006;2023-07-31T02:28:17;7.00;;;3.90;;
68126;SDS011;54931;52.098;21.006;2023-07-31T02:30:45;4.90;;;3.90;;
68126;SDS011;54931;52.098;21.006;2023-07-31T02:33:15;5.70;;;3.90;;
68126;SDS011;54931;52.098;21.006;2023-07-31T02:35:43;5.60;;;4.00;;
68126;SDS011;54931;52.098;21.006;2023-07-31T02:38:10;7.70;;;4.30;;
68126;SDS011;54931;52.098;21.006;2023-07-31T02:40:39;7.30;;;4.40;;
68126;SDS011;54931;52.098;21.006;2023-07-31T02:43:08;6.40;;;4.40;;
68126;SDS011;54931;52.098;21.006;2023-07-31T02:45:36;5.90;;;4.20;;
68126;SDS011;54931;52.098;21.006;2023-07-31T02:48:03;6.90;;;4.60;;
68126;SDS011;54931;52.098;21.006;2023-07-31T02:50:30;6.10;;;4.40;;
68126;SDS011;54931;52.098;21.006;2023-07-31T02:52:58;5.50;;;4.40;;
68126;SDS011;54931;52.098;21.006;2023-07-31T02:55:26;6.10;;;4.40;;
68126;SDS011;54931;52.098;21.006;2023-07-31T02:57:53;6.80;;;4.30;;
68126;SDS011;54931;52.098;21.006;2023-07-31T03:00:20;6.10;;;4.30;;
68126;SDS011;54931;52.098;21.006;2023-07-31T03:02:48;7.70;;;4.40;;
68126;SDS011;54931;52.098;21.006;2023-07-31T03:05:15;7.00;;;4.00;;
68126;SDS011;54931;52.098;21.006;2023-07-31T03:07:42;8.20;;;4.00;;
68126;SDS011;54931;52.098;21.006;2023-07-31T03:10:10;8.50;;;4.20;;
68126;SDS011;54931;52.098;21.006;2023-07-31T03:12:37;5.90;;;4.00;;
68126;SDS011;54931;52.098;21.006;2023-07-31T03:15:05;6.00;;;3.90;;
68126;SDS011;54931;52.098;21.006;2023-07-31T03:17:33;5.50;;;3.80;;
68126;SDS011;54931;52.098;21.006;2023-07-31T03:20:00;5.50;;;4.00;;
68126;SDS011;54931;52.098;21.006;2023-07-31T03:22:27;4.40;;;3.40;;
68126;SDS011;54931;52.098;21.006;2023-07-31T03:24:55;7.90;;;3.90;;
68126;SDS011;54931;52.098;21.006;2023-07-31T03:27:22;7.00;;;4.20;;
68126;SDS011;54931;52.098;21.006;2023-07-31T03:29:49;5.40;;;4.10;;
68126;SDS011;54931;52.098;21.006;2023-07-31T03:32:18;5.70;;;3.90;;
68126;SDS011;54931;52.098;21.006;2023-07-31T03:34:47;5.80;;;3.70;;
68126;SDS011;54931;52.098;21.006;2023-07-31T03:37:14;6.30;;;4.10;;
68126;SDS011;54931;52.098;21.006;2023-07-31T03:39:41;4.60;;;3.60;;
68126;SDS011;54931;52.098;21.006;2023-07-31T03:42:08;9.80;;;4.40;;
68126;SDS011;54931;52.098;21.006;2023-07-31T03:44:36;6.70;;;4.30;;
68126;SDS011;54931;52.098;21.006;2023-07-31T03:47:04;6.30;;;4.10;;
68126;SDS011;54931;52.098;21.006;2023-07-31T03:49:32;5.60;;;3.40;;
68126;SDS011;54931;52.098;21.006;2023-07-31T03:51:59;6.80;;;4.70;;
68126;SDS011;54931;52.098;21.006;2023-07-31T03:54:27;4.90;;;3.40;;
68126;SDS011;54931;52.098;21.006;2023-07-31T03:56:54;7.10;;;3.80;;
68126;SDS011;54931;52.098;21.006;2023-07-31T03:59:22;6.00;;;3.30;;
68126;SDS011;54931;52.098;21.006;2023-07-31T04:01:49;6.10;;;4.00;;
68126;SDS011;54931;52.098;21.006;2023-07-31T04:04:16;5.30;;;3.50;;
68126;SDS011;54931;52.098;21.006;2023-07-31T04:06:44;6.40;;;3.30;;
68126;SDS011;54931;52.098;21.006;2023-07-31T04:09:11;4.80;;;3.40;;
68126;SDS011;54931;52.098;21.006;2023-07-31T04:11:38;6.00;;;3.40;;
68126;SDS011;54931;52.098;21.006;2023-07-31T04:14:06;5.80;;;3.70;;
68126;SDS011;54931;52.098;21.006;2023-07-31T04:16:34;4.90;;;3.30;;
68126;SDS011;54931;52.098;21.006;2023-07-31T04:19:03;7.80;;;3.90;;
68126;SDS011;54931;52.098;21.006;2023-07-31T04:21:30;5.70;;;3.20;;
68126;SDS011;54931;52.098;21.006;2023-07-31T04:23:58;5.20;;;3.60;;
68126;SDS011;54931;52.098;21.006;2023-07-31T04:26:25;7.00;;;3.30;;
68126;SDS011;54931;52.098;21.006;2023-07-31T04:28:54;5.00;;;3.10;;
68126;SDS011;54931;52.098;21.006;2023-07-31T04:31:21;4.50;;;3.10;;
68126;SDS011;54931;52.098;21.006;2023-07-31T04:33:49;6.00;;;3.70;;
68126;SDS011;54931;52.098;21.006;2023-07-31T04:36:16;5.90;;;3.50;;
68126;SDS011;54931;52.098;21.006;2023-07-31T04:38:44;6.50;;;3.20;;
68126;SDS011;54931;52.098;21.006;2023-07-31T04:41:11;5.60;;;3.00;;
68126;SDS011;54931;52.098;21.006;2023-07-31T04:43:38;4.60;;;3.20;;
68126;SDS011;54931;52.098;21.006;2023-07-31T04:46:06;6.20;;;3.40;;
68126;SDS011;54931;52.098;21.006;2023-07-31T04:48:35;4.50;;;3.30;;
68126;SDS011;54931;52.098;21.006;2023-07-31T04:51:02;6.60;;;2.90;;
68126;SDS011;54931;52.098;21.006;2023-07-31T04:53:30;4.80;;;2.80;;
68126;SDS011;54931;52.098;21.006;2023-07-31T04:55:57;5.60;;;3.20;;
68126;SDS011;54931;52.098;21.006;2023-07-31T04:58:24;7.50;;;3.70;;
68126;SDS011;54931;52.098;21.006;2023-07-31T05:00:52;6.80;;;3.30;;
68126;SDS011;54931;52.098;21.006;2023-07-31T05:03:19;6.60;;;3.40;;
68126;SDS011;54931;52.098;21.006;2023-07-31T05:05:46;4.80;;;3.40;;
68126;SDS011;54931;52.098;21.006;2023-07-31T05:08:14;5.30;;;3.30;;
68126;SDS011;54931;52.098;21.006;2023-07-31T05:10:45;7.10;;;3.30;;
68126;SDS011;54931;52.098;21.006;2023-07-31T05:13:15;7.10;;;3.60;;
68126;SDS011;54931;52.098;21.006;2023-07-31T05:15:42;4.90;;;3.40;;
68126;SDS011;54931;52.098;21.006;2023-07-31T05:18:09;6.80;;;3.30;;
68126;SDS011;54931;52.098;21.006;2023-07-31T05:20:37;4.90;;;3.30;;
68126;SDS011;54931;52.098;21.006;2023-07-31T05:23:04;6.10;;;3.30;;
68126;SDS011;54931;52.098;21.006;2023-07-31T05:25:31;7.60;;;3.10;;
68126;SDS011;54931;52.098;21.006;2023-07-31T05:27:59;5.60;;;3.20;;
68126;SDS011;54931;52.098;21.006;2023-07-31T05:30:26;5.60;;;3.10;;
68126;SDS011;54931;52.098;21.006;2023-07-31T05:32:53;3.70;;;2.80;;
68126;SDS011;54931;52.098;21.006;2023-07-31T05:35:20;6.20;;;3.30;;
68126;SDS011;54931;52.098;21.006;2023-07-31T05:37:48;4.00;;;2.80;;
68126;SDS011;54931;52.098;21.006;2023-07-31T05:40:15;4.60;;;2.90;;
68126;SDS011;54931;52.098;21.006;2023-07-31T05:42:42;6.50;;;3.20;;
68126;SDS011;54931;52.098;21.006;2023-07-31T05:45:10;5.30;;;3.10;;
68126;SDS011;54931;52.098;21.006;2023-07-31T05:47:37;5.30;;;2.90;;
68126;SDS011;54931;52.098;21.006;2023-07-31T05:50:05;4.30;;;3.00;;
68126;SDS011;54931;52.098;21.006;2023-07-31T05:52:33;4.60;;;2.90;;
68126;SDS011;54931;52.098;21.006;2023-07-31T05:55:00;6.10;;;3.00;;
68126;SDS011;54931;52.098;21.006;2023-07-31T05:57:28;7.30;;;3.20;;
68126;SDS011;54931;52.098;21.006;2023-07-31T05:59:55;7.30;;;3.20;;
68126;SDS011;54931;52.098;21.006;2023-07-31T06:02:23;10.40;;;3.00;;
68126;SDS011;54931;52.098;21.006;2023-07-31T06:04:51;5.70;;;3.10;;
68126;SDS011;54931;52.098;21.006;2023-07-31T06:07:18;5.70;;;3.10;;
68126;SDS011;54931;52.098;21.006;2023-07-31T06:09:46;5.70;;;2.80;;
68126;SDS011;54931;52.098;21.006;2023-07-31T06:12:13;6.00;;;3.30;;
68126;SDS011;54931;52.098;21.006;2023-07-31T06:14:41;5.60;;;2.90;;
68126;SDS011;54931;52.098;21.006;2023-07-31T06:17:08;7.50;;;3.20;;
68126;SDS011;54931;52.098;21.006;2023-07-31T06:19:36;5.30;;;3.10;;
68126;SDS011;54931;52.098;21.006;2023-07-31T06:22:03;8.30;;;3.20;;
68126;SDS011;54931;52.098;21.006;2023-07-31T06:24:32;6.10;;;3.50;;
68126;SDS011;54931;52.098;21.006;2023-07-31T06:27:00;6.30;;;3.40;;
68126;SDS011;54931;52.098;21.006;2023-07-31T06:29:30;6.30;;;3.20;;
68126;SDS011;54931;52.098;21.006;2023-07-31T06:31:57;5.40;;;3.20;;
68126;SDS011;54931;52.098;21.006;2023-07-31T06:34:25;6.70;;;3.30;;
68126;SDS011;54931;52.098;21.006;2023-07-31T06:36:52;7.70;;;3.20;;
68126;SDS011;54931;52.098;21.006;2023-07-31T06:39:20;6.30;;;2.80;;
68126;SDS011;54931;52.098;21.006;2023-07-31T06:41:47;4.90;;;3.20;;
68126;SDS011;54931;52.098;21.006;2023-07-31T06:44:14;7.40;;;3.30;;
68126;SDS011;54931;52.098;21.006;2023-07-31T06:46:42;5.60;;;3.20;;
68126;SDS011;54931;52.098;21.006;2023-07-31T06:49:09;5.30;;;3.10;;
68126;SDS011;54931;52.098;21.006;2023-07-31T06:51:37;6.20;;;3.20;;
68126;SDS011;54931;52.098;21.006;2023-07-31T06:54:06;4.30;;;3.20;;
68126;SDS011;54931;52.098;21.006;2023-07-31T06:56:35;6.20;;;3.30;;
68126;SDS011;54931;52.098;21.006;2023-07-31T06:59:03;6.40;;;3.20;;
68126;SDS011;54931;52.098;21.006;2023-07-31T07:01:30;5.10;;;3.10;;
68126;SDS011;54931;52.098;21.006;2023-07-31T07:03:58;5.20;;;3.20;;
68126;SDS011;54931;52.098;21.006;2023-07-31T07:06:25;5.70;;;3.60;;
68126;SDS011;54931;52.098;21.006;2023-07-31T07:08:52;4.90;;;3.10;;
68126;SDS011;54931;52.098;21.006;2023-07-31T07:11:20;5.90;;;3.10;;
68126;SDS011;54931;52.098;21.006;2023-07-31T07:13:47;6.00;;;3.20;;
68126;SDS011;54931;52.098;21.006;2023-07-31T07:16:15;5.20;;;3.20;;
68126;SDS011;54931;52.098;21.006;2023-07-31T07:18:42;4.80;;;2.90;;
68126;SDS011;54931;52.098;21.006;2023-07-31T07:21:10;4.70;;;3.10;;
68126;SDS011;54931;52.098;21.006;2023-07-31T07:23:42;5.50;;;3.10;;
68126;SDS011;54931;52.098;21.006;2023-07-31T07:26:09;5.20;;;3.00;;
68126;SDS011;54931;52.098;21.006;2023-07-31T07:28:37;5.10;;;3.20;;
68126;SDS011;54931;52.098;21.006;2023-07-31T07:31:04;7.60;;;2.80;;
68126;SDS011;54931;52.098;21.006;2023-07-31T07:33:32;5.50;;;2.90;;
68126;SDS011;54931;52.098;21.006;2023-07-31T07:36:00;4.80;;;2.60;;
68126;SDS011;54931;52.098;21.006;2023-07-31T07:38:29;4.50;;;2.80;;
68126;SDS011;54931;52.098;21.006;2023-07-31T07:40:56;5.40;;;2.80;;
68126;SDS011;54931;52.098;21.006;2023-07-31T07:43:24;5.70;;;3.00;;
68126;SDS011;54931;52.098;21.006;2023-07-31T07:45:51;5.70;;;2.80;;
68126;SDS011;54931;52.098;21.006;2023-07-31T07:48:20;4.90;;;2.80;;
68126;SDS011;54931;52.098;21.006;2023-07-31T07:50:48;5.40;;;2.80;;
68126;SDS011;54931;52.098;21.006;2023-07-31T07:53:16;5.20;;;2.80;;
68126;SDS011;54931;52.098;21.006;2023-07-31T07:55:43;6.50;;;2.50;;
68126;SDS011;54931;52.098;21.006;2023-07-31T07:58:11;4.30;;;2.40;;
68126;SDS011;54931;52.098;21.006;2023-07-31T08:00:39;4.70;;;2.90;;
68126;SDS011;54931;52.098;21.006;2023-07-31T08:03:06;4.60;;;2.60;;
68126;SDS011;54931;52.098;21.006;2023-07-31T08:05:34;7.20;;;2.90;;
68126;SDS011;54931;52.098;21.006;2023-07-31T08:08:02;6.80;;;2.90;;
68126;SDS011;54931;52.098;21.006;2023-07-31T08:10:29;5.80;;;2.70;;
68126;SDS011;54931;52.098;21.006;2023-07-31T08:12:57;4.60;;;2.80;;
68126;SDS011;54931;52.098;21.006;2023-07-31T08:15:25;5.00;;;2.70;;
68126;SDS011;54931;52.098;21.006;2023-07-31T08:17:52;3.40;;;2.40;;
68126;SDS011;54931;52.098;21.006;2023-07-31T08:20:20;5.90;;;2.60;;
68126;SDS011;54931;52.098;21.006;2023-07-31T08:22:49;6.00;;;3.00;;
68126;SDS011;54931;52.098;21.006;2023-07-31T08:25:16;6.30;;;2.50;;
68126;SDS011;54931;52.098;21.006;2023-07-31T08:27:44;6.00;;;2.60;;
68126;SDS011;54931;52.098;21.006;2023-07-31T08:30:12;4.30;;;2.50;;
68126;SDS011;54931;52.098;21.006;2023-07-31T08:32:39;3.70;;;2.60;;
68126;SDS011;54931;52.098;21.006;2023-07-31T08:35:07;4.70;;;2.50;;
68126;SDS011;54931;52.098;21.006;2023-07-31T08:37:35;4.40;;;2.30;;
68126;SDS011;54931;52.098;21.006;2023-07-31T08:40:03;3.80;;;2.40;;
68126;SDS011;54931;52.098;21.006;2023-07-31T08:42:32;4.70;;;2.60;;
68126;SDS011;54931;52.098;21.006;2023-07-31T08:45:01;3.70;;;2.30;;
68126;SDS011;54931;52.098;21.006;2023-07-31T08:47:31;3.80;;;2.40;;
68126;SDS011;54931;52.098;21.006;2023-07-31T08:49:59;7.60;;;2.20;;
68126;SDS011;54931;52.098;21.006;2023-07-31T08:52:29;6.30;;;2.30;;
68126;SDS011;54931;52.098;21.006;2023-07-31T08:54:57;6.30;;;2.30;;
68126;SDS011;54931;52.098;21.006;2023-07-31T08:57:25;6.20;;;2.60;;
68126;SDS011;54931;52.098;21.006;2023-07-31T08:59:53;4.90;;;2.20;;
68126;SDS011;54931;52.098;21.006;2023-07-31T09:02:21;6.20;;;2.50;;
68126;SDS011;54931;52.098;21.006;2023-07-31T09:04:50;5.50;;;2.70;;
68126;SDS011;54931;52.098;21.006;2023-07-31T09:07:18;4.40;;;2.50;;
68126;SDS011;54931;52.098;21.006;2023-07-31T09:09:46;6.00;;;2.30;;
68126;SDS011;54931;52.098;21.006;2023-07-31T09:12:14;5.70;;;2.30;;
68126;SDS011;54931;52.098;21.006;2023-07-31T09:14:42;5.20;;;2.50;;
68126;SDS011;54931;52.098;21.006;2023-07-31T09:17:12;6.40;;;2.30;;
68126;SDS011;54931;52.098;21.006;2023-07-31T09:19:46;5.20;;;2.30;;
68126;SDS011;54931;52.098;21.006;2023-07-31T09:22:13;3.70;;;2.20;;
68126;SDS011;54931;52.098;21.006;2023-07-31T09:24:42;4.20;;;2.40;;
68126;SDS011;54931;52.098;21.006;2023-07-31T09:27:10;5.00;;;2.20;;
68126;SDS011;54931;52.098;21.006;2023-07-31T09:29:37;2.90;;;2.10;;
68126;SDS011;54931;52.098;21.006;2023-07-31T09:32:15;4.00;;;2.30;;
68126;SDS011;54931;52.098;21.006;2023-07-31T09:34:44;5.50;;;2.40;;
68126;SDS011;54931;52.098;21.006;2023-07-31T09:37:12;4.80;;;2.30;;
68126;SDS011;54931;52.098;21.006;2023-07-31T09:39:47;3.30;;;2.10;;
68126;SDS011;54931;52.098;21.006;2023-07-31T09:42:25;2.70;;;2.00;;
68126;SDS011;54931;52.098;21.006;2023-07-31T09:44:54;3.20;;;2.10;;
68126;SDS011;54931;52.098;21.006;2023-07-31T09:47:38;4.00;;;2.10;;
68126;SDS011;54931;52.098;21.006;2023-07-31T09:50:08;3.90;;;2.10;;
68126;SDS011;54931;52.098;21.006;2023-07-31T09:52:39;5.80;;;2.10;;
68126;SDS011;54931;52.098;21.006;2023-07-31T09:55:09;4.10;;;1.90;;
68126;SDS011;54931;52.098;21.006;2023-07-31T09:57:40;3.40;;;2.10;;
68126;SDS011;54931;52.098;21.006;2023-07-31T10:00:14;5.50;;;2.30;;
68126;SDS011;54931;52.098;21.006;2023-07-31T10:02:47;3.60;;;2.10;;
68126;SDS011;54931;52.098;21.006;2023-07-31T10:05:17;3.70;;;2.20;;
68126;SDS011;54931;52.098;21.006;2023-07-31T10:07:55;5.30;;;2.00;;
68126;SDS011;54931;52.098;21.006;2023-07-31T10:10:26;5.40;;;2.20;;
68126;SDS011;54931;52.098;21.006;2023-07-31T10:12:56;4.20;;;2.20;;
68126;SDS011;54931;52.098;21.006;2023-07-31T10:15:25;4.50;;;2.40;;
68126;SDS011;54931;52.098;21.006;2023-07-31T10:17:54;3.70;;;2.30;;
68126;SDS011;54931;52.098;21.006;2023-07-31T10:20:23;4.70;;;2.20;;
68126;SDS011;54931;52.098;21.006;2023-07-31T10:22:54;5.30;;;2.10;;
68126;SDS011;54931;52.098;21.006;2023-07-31T10:25:26;3.10;;;2.30;;
68126;SDS011;54931;52.098;21.006;2023-07-31T10:27:57;4.30;;;2.10;;
68126;SDS011;54931;52.098;21.006;2023-07-31T10:30:28;3.10;;;2.10;;
68126;SDS011;54931;52.098;21.006;2023-07-31T10:33:00;3.40;;;2.20;;
68126;SDS011;54931;52.098;21.006;2023-07-31T10:35:28;5.80;;;2.50;;
68126;SDS011;54931;52.098;21.006;2023-07-31T10:38:09;3.60;;;1.80;;
68126;SDS011;54931;52.098;21.006;2023-07-31T10:40:39;5.20;;;2.10;;
68126;SDS011;54931;52.098;21.006;2023-07-31T10:43:07;3.60;;;1.90;;
68126;SDS011;54931;52.098;21.006;2023-07-31T10:45:39;4.60;;;2.00;;
68126;SDS011;54931;52.098;21.006;2023-07-31T10:48:16;5.70;;;2.30;;
68126;SDS011;54931;52.098;21.006;2023-07-31T10:50:55;4.30;;;2.00;;
68126;SDS011;54931;52.098;21.006;2023-07-31T10:53:31;3.10;;;2.10;;
68126;SDS011;54931;52.098;21.006;2023-07-31T10:56:08;3.50;;;2.00;;
68126;SDS011;54931;52.098;21.006;2023-07-31T10:58:38;3.90;;;2.10;;
68126;SDS011;54931;52.098;21.006;2023-07-31T11:01:06;4.70;;;2.10;;
68126;SDS011;54931;52.098;21.006;2023-07-31T11:03:48;3.20;;;2.00;;
68126;SDS011;54931;52.098;21.006;2023-07-31T11:06:19;4.40;;;2.00;;
68126;SDS011;54931;52.098;21.006;2023-07-31T11:08:49;3.10;;;2.30;;
68126;SDS011;54931;52.098;21.006;2023-07-31T11:11:20;3.30;;;2.20;;
68126;SDS011;54931;52.098;21.006;2023-07-31T11:13:50;3.00;;;2.00;;
68126;SDS011;54931;52.098;21.006;2023-07-31T11:16:25;3.00;;;2.10;;
68126;SDS011;54931;52.098;21.006;2023-07-31T11:18:53;8.20;;;2.20;;
68126;SDS011;54931;52.098;21.006;2023-07-31T11:21:24;3.00;;;1.80;;
68126;SDS011;54931;52.098;21.006;2023-07-31T11:23:56;4.50;;;1.90;;
68126;SDS011;54931;52.098;21.006;2023-07-31T11:26:25;4.20;;;2.10;;
68126;SDS011;54931;52.098;21.006;2023-07-31T11:28:54;6.00;;;2.10;;
68126;SDS011;54931;52.098;21.006;2023-07-31T11:31:22;5.40;;;2.10;;
68126;SDS011;54931;52.098;21.006;2023-07-31T11:33:49;2.90;;;1.90;;
68126;SDS011;54931;52.098;21.006;2023-07-31T11:36:18;4.00;;;1.90;;
68126;SDS011;54931;52.098;21.006;2023-07-31T11:38:48;5.40;;;1.90;;
68126;SDS011;54931;52.098;21.006;2023-07-31T11:41:16;4.70;;;2.10;;
68126;SDS011;54931;52.098;21.006;2023-07-31T11:43:46;4.10;;;1.90;;
68126;SDS011;54931;52.098;21.006;2023-07-31T11:46:14;5.30;;;1.90;;
68126;SDS011;54931;52.098;21.006;2023-07-31T11:48:43;5.80;;;1.70;;
68126;SDS011;54931;52.098;21.006;2023-07-31T11:51:13;3.00;;;1.70;;
68126;SDS011;54931;52.098;21.006;2023-07-31T11:54:00;3.00;;;1.70;;
68126;SDS011;54931;52.098;21.006;2023-07-31T11:56:30;3.50;;;2.10;;
68126;SDS011;54931;52.098;21.006;2023-07-31T11:58:59;3.40;;;1.90;;
68126;SDS011;54931;52.098;21.006;2023-07-31T12:01:31;4.30;;;1.70;;
68126;SDS011;54931;52.098;21.006;2023-07-31T12:04:00;6.50;;;2.10;;
68126;SDS011;54931;52.098;21.006;2023-07-31T12:06:35;4.00;;;1.80;;
68126;SDS011;54931;52.098;21.006;2023-07-31T12:11:45;2.50;;;1.60;;
68126;SDS011;54931;52.098;21.006;2023-07-31T12:14:25;5.00;;;1.80;;
68126;SDS011;54931;52.098;21.006;2023-07-31T12:17:00;4.00;;;1.60;;
68126;SDS011;54931;52.098;21.006;2023-07-31T12:19:31;2.90;;;1.50;;
68126;SDS011;54931;52.098;21.006;2023-07-31T12:22:00;2.80;;;1.70;;
68126;SDS011;54931;52.098;21.006;2023-07-31T12:24:28;3.90;;;1.70;;
68126;SDS011;54931;52.098;21.006;2023-07-31T12:26:56;3.10;;;1.50;;
68126;SDS011;54931;52.098;21.006;2023-07-31T12:29:33;4.40;;;1.70;;
68126;SDS011;54931;52.098;21.006;2023-07-31T12:32:03;3.20;;;1.80;;
68126;SDS011;54931;52.098;21.006;2023-07-31T12:34:31;3.10;;;1.60;;
68126;SDS011;54931;52.098;21.006;2023-07-31T12:37:09;2.80;;;1.50;;
68126;SDS011;54931;52.098;21.006;2023-07-31T12:39:37;3.40;;;1.70;;
68126;SDS011;54931;52.098;21.006;2023-07-31T12:42:05;3.60;;;1.70;;
68126;SDS011;54931;52.098;21.006;2023-07-31T12:44:33;4.30;;;1.80;;
68126;SDS011;54931;52.098;21.006;2023-07-31T12:47:01;4.20;;;1.70;;
68126;SDS011;54931;52.098;21.006;2023-07-31T12:49:28;2.90;;;1.60;;
68126;SDS011;54931;52.098;21.006;2023-07-31T12:51:56;4.70;;;1.60;;
68126;SDS011;54931;52.098;21.006;2023-07-31T12:54:23;4.50;;;1.80;;
68126;SDS011;54931;52.098;21.006;2023-07-31T12:56:51;6.00;;;2.20;;
68126;SDS011;54931;52.098;21.006;2023-07-31T12:59:19;3.10;;;1.40;;
68126;SDS011;54931;52.098;21.006;2023-07-31T13:01:46;3.90;;;1.90;;
68126;SDS011;54931;52.098;21.006;2023-07-31T13:04:14;3.30;;;1.70;;
68126;SDS011;54931;52.098;21.006;2023-07-31T13:06:41;6.60;;;2.00;;
68126;SDS011;54931;52.098;21.006;2023-07-31T13:09:09;4.30;;;1.80;;
68126;SDS011;54931;52.098;21.006;2023-07-31T13:11:37;4.10;;;1.50;;
68126;SDS011;54931;52.098;21.006;2023-07-31T13:14:05;4.90;;;2.10;;
68126;SDS011;54931;52.098;21.006;2023-07-31T13:16:33;3.90;;;1.80;;
68126;SDS011;54931;52.098;21.006;2023-07-31T13:19:01;4.50;;;1.70;;
68126;SDS011;54931;52.098;21.006;2023-07-31T13:21:28;3.40;;;1.80;;
68126;SDS011;54931;52.098;21.006;2023-07-31T13:23:56;3.40;;;1.90;;
68126;SDS011;54931;52.098;21.006;2023-07-31T13:26:25;4.90;;;1.90;;
68126;SDS011;54931;52.098;21.006;2023-07-31T13:28:53;6.00;;;1.80;;
68126;SDS011;54931;52.098;21.006;2023-07-31T13:31:20;3.20;;;1.60;;
68126;SDS011;54931;52.098;21.006;2023-07-31T13:33:48;4.00;;;1.80;;
68126;SDS011;54931;52.098;21.006;2023-07-31T13:36:15;6.40;;;2.00;;
68126;SDS011;54931;52.098;21.006;2023-07-31T13:38:43;6.90;;;2.00;;
68126;SDS011;54931;52.098;21.006;2023-07-31T13:41:11;6.60;;;2.00;;
68126;SDS011;54931;52.098;21.006;2023-07-31T13:43:38;3.50;;;2.20;;
68126;SDS011;54931;52.098;21.006;2023-07-31T13:46:06;2.70;;;1.90;;
68126;SDS011;54931;52.098;21.006;2023-07-31T13:48:35;4.00;;;1.80;;
68126;SDS011;54931;52.098;21.006;2023-07-31T13:51:03;3.40;;;1.70;;
68126;SDS011;54931;52.098;21.006;2023-07-31T13:53:31;6.70;;;1.90;;
68126;SDS011;54931;52.098;21.006;2023-07-31T13:56:00;3.90;;;1.70;;
68126;SDS011;54931;52.098;21.006;2023-07-31T13:58:28;4.50;;;1.80;;
68126;SDS011;54931;52.098;21.006;2023-07-31T14:00:56;4.60;;;1.80;;
68126;SDS011;54931;52.098;21.006;2023-07-31T14:03:24;3.70;;;2.00;;
68126;SDS011;54931;52.098;21.006;2023-07-31T14:05:52;4.00;;;1.80;;
68126;SDS011;54931;52.098;21.006;2023-07-31T14:08:22;5.20;;;2.00;;
68126;SDS011;54931;52.098;21.006;2023-07-31T14:10:50;8.00;;;1.90;;
68126;SDS011;54931;52.098;21.006;2023-07-31T14:13:19;4.50;;;1.80;;
68126;SDS011;54931;52.098;21.006;2023-07-31T14:15:47;3.40;;;1.70;;
68126;SDS011;54931;52.098;21.006;2023-07-31T14:18:15;5.70;;;2.20;;
68126;SDS011;54931;52.098;21.006;2023-07-31T14:20:43;5.30;;;1.80;;
68126;SDS011;54931;52.098;21.006;2023-07-31T14:23:11;5.50;;;1.80;;
68126;SDS011;54931;52.098;21.006;2023-07-31T14:25:39;3.20;;;1.60;;
68126;SDS011;54931;52.098;21.006;2023-07-31T14:28:07;4.10;;;1.90;;
68126;SDS011;54931;52.098;21.006;2023-07-31T14:30:35;4.60;;;1.60;;
68126;SDS011;54931;52.098;21.006;2023-07-31T14:33:03;4.40;;;1.70;;
68126;SDS011;54931;52.098;21.006;2023-07-31T14:35:30;3.40;;;1.80;;
68126;SDS011;54931;52.098;21.006;2023-07-31T14:37:58;5.60;;;1.90;;
68126;SDS011;54931;52.098;21.006;2023-07-31T14:40:26;5.20;;;1.70;;
68126;SDS011;54931;52.098;21.006;2023-07-31T14:42:54;4.00;;;1.60;;
68126;SDS011;54931;52.098;21.006;2023-07-31T14:45:22;5.20;;;1.90;;
68126;SDS011;54931;52.098;21.006;2023-07-31T14:47:49;5.10;;;1.70;;